sensor_id;sensor_type;location;lat;lon;timestamp;P1;durP1;ratioP1;P2;durP2;ratioP2
40533;SDS011;26233;51.894;10.192;2022-11-20T00:01:44;7.03;;;5.63;;
40533;SDS011;26233;51.894;10.192;2022-11-20T00:04:12;6.17;;;5.57;;
40533;SDS011;26233;51.894;10.192;2022-11-20T00:06:39;5.80;;;5.00;;
40533;SDS011;26233;51.894;10.192;2022-11-20T00:09:06;5.13;;;4.60;;
40533;SDS011;26233;51.894;10.192;2022-11-20T00:11:36;5.13;;;4.40;;
40533;SDS011;26233;51.894;10.192;2022-11-20T00:14:03;4.90;;;4.30;;
40533;SDS011;26233;51.894;10.192;2022-11-20T00:16:32;4.90;;;4.17;;
40533;SDS011;26233;51.894;10.192;2022-11-20T00:18:59;4.60;;;3.67;;
40533;SDS011;26233;51.894;10.192;2022-11-20T00:21:27;4.40;;;4.00;;
40533;SDS011;26233;51.894;10.192;2022-11-20T00:23:55;4.33;;;3.90;;
40533;SDS011;26233;51.894;10.192;2022-11-20T00:26:24;4.70;;;4.20;;
40533;SDS011;26233;51.894;10.192;2022-11-20T00:28:53;4.53;;;4.13;;
40533;SDS011;26233;51.894;10.192;2022-11-20T00:31:24;4.97;;;4.40;;
40533;SDS011;26233;51.894;10.192;2022-11-20T00:33:53;6.33;;;5.60;;
40533;SDS011;26233;51.894;10.192;2022-11-20T00:36:21;5.90;;;4.93;;
40533;SDS011;26233;51.894;10.192;2022-11-20T00:38:51;6.97;;;5.40;;
40533;SDS011;26233;51.894;10.192;2022-11-20T00:41:19;6.27;;;5.37;;
40533;SDS011;26233;51.894;10.192;2022-11-20T00:43:46;9.03;;;6.80;;
40533;SDS011;26233;51.894;10.192;2022-11-20T00:46:14;8.90;;;8.00;;
40533;SDS011;26233;51.894;10.192;2022-11-20T00:48:43;10.60;;;8.87;;
40533;SDS011;26233;51.894;10.192;2022-11-20T00:51:12;7.63;;;6.83;;
40533;SDS011;26233;51.894;10.192;2022-11-20T00:53:43;5.83;;;5.23;;
40533;SDS011;26233;51.894;10.192;2022-11-20T00:56:16;5.33;;;4.77;;
40533;SDS011;26233;51.894;10.192;2022-11-20T00:58:45;4.70;;;4.30;;
40533;SDS011;26233;51.894;10.192;2022-11-20T01:01:15;4.77;;;4.37;;
40533;SDS011;26233;51.894;10.192;2022-11-20T01:03:45;4.20;;;3.80;;
40533;SDS011;26233;51.894;10.192;2022-11-20T01:06:15;4.27;;;3.87;;
40533;SDS011;26233;51.894;10.192;2022-11-20T01:08:46;4.37;;;3.97;;
40533;SDS011;26233;51.894;10.192;2022-11-20T01:11:14;4.37;;;3.97;;
40533;SDS011;26233;51.894;10.192;2022-11-20T01:13:44;4.40;;;4.00;;
40533;SDS011;26233;51.894;10.192;2022-11-20T01:16:12;4.60;;;4.20;;
40533;SDS011;26233;51.894;10.192;2022-11-20T01:18:43;4.87;;;4.40;;
40533;SDS011;26233;51.894;10.192;2022-11-20T01:21:12;4.40;;;4.00;;
40533;SDS011;26233;51.894;10.192;2022-11-20T01:23:43;3.90;;;3.60;;
40533;SDS011;26233;51.894;10.192;2022-11-20T01:26:13;4.30;;;3.90;;
40533;SDS011;26233;51.894;10.192;2022-11-20T01:28:42;4.13;;;3.73;;
40533;SDS011;26233;51.894;10.192;2022-11-20T01:31:10;5.17;;;4.00;;
40533;SDS011;26233;51.894;10.192;2022-11-20T01:33:40;4.63;;;3.90;;
40533;SDS011;26233;51.894;10.192;2022-11-20T01:36:08;4.47;;;4.07;;
40533;SDS011;26233;51.894;10.192;2022-11-20T01:38:38;3.60;;;3.30;;
40533;SDS011;26233;51.894;10.192;2022-11-20T01:41:06;3.70;;;3.40;;
40533;SDS011;26233;51.894;10.192;2022-11-20T01:43:34;4.17;;;3.77;;
40533;SDS011;26233;51.894;10.192;2022-11-20T01:46:02;3.93;;;3.63;;
40533;SDS011;26233;51.894;10.192;2022-11-20T01:48:40;4.03;;;3.50;;
40533;SDS011;26233;51.894;10.192;2022-11-20T01:51:16;3.40;;;3.10;;
40533;SDS011;26233;51.894;10.192;2022-11-20T01:53:52;3.80;;;3.40;;
40533;SDS011;26233;51.894;10.192;2022-11-20T01:56:22;3.70;;;3.40;;
40533;SDS011;26233;51.894;10.192;2022-11-20T01:58:51;4.00;;;3.60;;
40533;SDS011;26233;51.894;10.192;2022-11-20T02:01:20;3.80;;;3.40;;
40533;SDS011;26233;51.894;10.192;2022-11-20T02:03:48;4.67;;;3.70;;
40533;SDS011;26233;51.894;10.192;2022-11-20T02:06:17;3.47;;;3.17;;
40533;SDS011;26233;51.894;10.192;2022-11-20T02:08:50;3.80;;;3.20;;
40533;SDS011;26233;51.894;10.192;2022-11-20T02:11:19;3.60;;;3.30;;
40533;SDS011;26233;51.894;10.192;2022-11-20T02:13:46;4.03;;;3.33;;
40533;SDS011;26233;51.894;10.192;2022-11-20T02:16:15;3.60;;;3.30;;
40533;SDS011;26233;51.894;10.192;2022-11-20T02:18:46;3.63;;;3.33;;
40533;SDS011;26233;51.894;10.192;2022-11-20T02:21:17;3.63;;;3.33;;
40533;SDS011;26233;51.894;10.192;2022-11-20T02:24:04;3.23;;;2.93;;
40533;SDS011;26233;51.894;10.192;2022-11-20T02:26:39;4.03;;;3.50;;
40533;SDS011;26233;51.894;10.192;2022-11-20T02:29:13;3.10;;;2.80;;
40533;SDS011;26233;51.894;10.192;2022-11-20T02:31:43;3.20;;;2.90;;
40533;SDS011;26233;51.894;10.192;2022-11-20T02:34:13;3.83;;;3.10;;
40533;SDS011;26233;51.894;10.192;2022-11-20T02:36:40;3.00;;;2.80;;
40533;SDS011;26233;51.894;10.192;2022-11-20T02:39:10;3.60;;;3.10;;
40533;SDS011;26233;51.894;10.192;2022-11-20T02:41:41;3.23;;;2.87;;
40533;SDS011;26233;51.894;10.192;2022-11-20T02:44:09;2.93;;;2.73;;
40533;SDS011;26233;51.894;10.192;2022-11-20T02:46:37;3.13;;;2.83;;
40533;SDS011;26233;51.894;10.192;2022-11-20T02:49:05;4.20;;;2.90;;
40533;SDS011;26233;51.894;10.192;2022-11-20T02:51:32;2.67;;;2.47;;
40533;SDS011;26233;51.894;10.192;2022-11-20T02:53:59;3.47;;;2.83;;
40533;SDS011;26233;51.894;10.192;2022-11-20T02:56:29;2.97;;;2.67;;
40533;SDS011;26233;51.894;10.192;2022-11-20T02:58:57;2.87;;;2.67;;
40533;SDS011;26233;51.894;10.192;2022-11-20T03:01:24;3.43;;;2.90;;
40533;SDS011;26233;51.894;10.192;2022-11-20T03:03:51;3.20;;;2.90;;
40533;SDS011;26233;51.894;10.192;2022-11-20T03:06:19;3.03;;;2.73;;
40533;SDS011;26233;51.894;10.192;2022-11-20T03:08:46;2.87;;;2.67;;
40533;SDS011;26233;51.894;10.192;2022-11-20T03:11:13;3.27;;;2.70;;
40533;SDS011;26233;51.894;10.192;2022-11-20T03:13:43;2.80;;;2.60;;
40533;SDS011;26233;51.894;10.192;2022-11-20T03:16:13;3.00;;;2.70;;
40533;SDS011;26233;51.894;10.192;2022-11-20T03:18:44;2.83;;;2.63;;
40533;SDS011;26233;51.894;10.192;2022-11-20T03:21:11;3.10;;;2.80;;
40533;SDS011;26233;51.894;10.192;2022-11-20T03:23:41;3.47;;;3.17;;
40533;SDS011;26233;51.894;10.192;2022-11-20T03:26:13;2.50;;;2.30;;
40533;SDS011;26233;51.894;10.192;2022-11-20T03:28:45;2.67;;;2.47;;
40533;SDS011;26233;51.894;10.192;2022-11-20T03:31:15;2.60;;;2.40;;
40533;SDS011;26233;51.894;10.192;2022-11-20T03:33:44;2.60;;;2.40;;
40533;SDS011;26233;51.894;10.192;2022-11-20T03:36:11;2.80;;;2.50;;
40533;SDS011;26233;51.894;10.192;2022-11-20T03:38:40;3.30;;;2.33;;
40533;SDS011;26233;51.894;10.192;2022-11-20T03:41:10;2.60;;;2.40;;
40533;SDS011;26233;51.894;10.192;2022-11-20T03:43:40;2.60;;;2.40;;
40533;SDS011;26233;51.894;10.192;2022-11-20T03:46:09;2.93;;;2.70;;
40533;SDS011;26233;51.894;10.192;2022-11-20T03:48:36;3.20;;;2.90;;
40533;SDS011;26233;51.894;10.192;2022-11-20T03:51:06;3.20;;;2.90;;
40533;SDS011;26233;51.894;10.192;2022-11-20T03:53:35;2.83;;;2.57;;
40533;SDS011;26233;51.894;10.192;2022-11-20T03:56:03;3.27;;;2.87;;
40533;SDS011;26233;51.894;10.192;2022-11-20T03:58:32;3.40;;;3.10;;
40533;SDS011;26233;51.894;10.192;2022-11-20T04:01:04;3.17;;;2.87;;
40533;SDS011;26233;51.894;10.192;2022-11-20T04:03:38;3.03;;;2.83;;
40533;SDS011;26233;51.894;10.192;2022-11-20T04:06:08;3.63;;;3.33;;
40533;SDS011;26233;51.894;10.192;2022-11-20T04:08:37;3.43;;;3.13;;
40533;SDS011;26233;51.894;10.192;2022-11-20T04:11:09;3.47;;;3.13;;
40533;SDS011;26233;51.894;10.192;2022-11-20T04:13:37;3.03;;;2.83;;
40533;SDS011;26233;51.894;10.192;2022-11-20T04:16:05;3.10;;;2.87;;
40533;SDS011;26233;51.894;10.192;2022-11-20T04:18:35;3.00;;;2.80;;
40533;SDS011;26233;51.894;10.192;2022-11-20T04:21:02;3.00;;;2.70;;
40533;SDS011;26233;51.894;10.192;2022-11-20T04:23:30;3.07;;;2.60;;
40533;SDS011;26233;51.894;10.192;2022-11-20T04:26:00;2.30;;;2.10;;
40533;SDS011;26233;51.894;10.192;2022-11-20T04:28:29;2.93;;;2.67;;
40533;SDS011;26233;51.894;10.192;2022-11-20T04:31:01;2.40;;;2.20;;
40533;SDS011;26233;51.894;10.192;2022-11-20T04:33:30;2.87;;;2.60;;
40533;SDS011;26233;51.894;10.192;2022-11-20T04:36:00;3.00;;;2.70;;
40533;SDS011;26233;51.894;10.192;2022-11-20T04:38:29;2.77;;;2.47;;
40533;SDS011;26233;51.894;10.192;2022-11-20T04:40:57;2.67;;;2.47;;
40533;SDS011;26233;51.894;10.192;2022-11-20T04:43:25;2.80;;;2.40;;
40533;SDS011;26233;51.894;10.192;2022-11-20T04:45:52;2.87;;;2.60;;
40533;SDS011;26233;51.894;10.192;2022-11-20T04:48:20;3.23;;;2.33;;
40533;SDS011;26233;51.894;10.192;2022-11-20T04:50:47;2.60;;;2.40;;
40533;SDS011;26233;51.894;10.192;2022-11-20T04:53:16;2.50;;;2.30;;
40533;SDS011;26233;51.894;10.192;2022-11-20T04:55:46;2.60;;;2.40;;
40533;SDS011;26233;51.894;10.192;2022-11-20T04:58:14;2.50;;;2.30;;
40533;SDS011;26233;51.894;10.192;2022-11-20T05:00:41;2.40;;;2.20;;
40533;SDS011;26233;51.894;10.192;2022-11-20T05:03:09;2.30;;;2.10;;
40533;SDS011;26233;51.894;10.192;2022-11-20T05:05:36;2.30;;;2.10;;
40533;SDS011;26233;51.894;10.192;2022-11-20T05:08:03;2.90;;;2.50;;
40533;SDS011;26233;51.894;10.192;2022-11-20T05:10:31;2.50;;;2.30;;
40533;SDS011;26233;51.894;10.192;2022-11-20T05:12:59;2.50;;;2.30;;
40533;SDS011;26233;51.894;10.192;2022-11-20T05:15:26;2.50;;;2.30;;
40533;SDS011;26233;51.894;10.192;2022-11-20T05:17:53;2.83;;;2.57;;
40533;SDS011;26233;51.894;10.192;2022-11-20T05:20:20;2.50;;;2.30;;
40533;SDS011;26233;51.894;10.192;2022-11-20T05:22:47;2.87;;;2.40;;
40533;SDS011;26233;51.894;10.192;2022-11-20T05:25:14;3.13;;;2.83;;
40533;SDS011;26233;51.894;10.192;2022-11-20T05:27:42;3.37;;;2.57;;
40533;SDS011;26233;51.894;10.192;2022-11-20T05:30:10;3.33;;;2.87;;
40533;SDS011;26233;51.894;10.192;2022-11-20T05:32:39;3.13;;;2.83;;
40533;SDS011;26233;51.894;10.192;2022-11-20T05:35:06;3.63;;;3.23;;
40533;SDS011;26233;51.894;10.192;2022-11-20T05:37:34;3.30;;;3.00;;
40533;SDS011;26233;51.894;10.192;2022-11-20T05:40:01;3.53;;;3.20;;
40533;SDS011;26233;51.894;10.192;2022-11-20T05:42:29;2.97;;;2.67;;
40533;SDS011;26233;51.894;10.192;2022-11-20T05:44:58;2.63;;;2.43;;
40533;SDS011;26233;51.894;10.192;2022-11-20T05:47:27;2.90;;;2.60;;
40533;SDS011;26233;51.894;10.192;2022-11-20T05:49:58;3.20;;;2.90;;
40533;SDS011;26233;51.894;10.192;2022-11-20T05:52:27;2.60;;;2.40;;
40533;SDS011;26233;51.894;10.192;2022-11-20T05:54:55;3.20;;;2.90;;
40533;SDS011;26233;51.894;10.192;2022-11-20T05:57:22;2.90;;;2.60;;
40533;SDS011;26233;51.894;10.192;2022-11-20T05:59:49;3.00;;;2.70;;
40533;SDS011;26233;51.894;10.192;2022-11-20T06:02:19;2.83;;;2.60;;
40533;SDS011;26233;51.894;10.192;2022-11-20T06:04:46;2.90;;;2.70;;
40533;SDS011;26233;51.894;10.192;2022-11-20T06:07:13;2.77;;;2.57;;
40533;SDS011;26233;51.894;10.192;2022-11-20T06:09:40;2.60;;;2.40;;
40533;SDS011;26233;51.894;10.192;2022-11-20T06:12:07;2.97;;;2.67;;
40533;SDS011;26233;51.894;10.192;2022-11-20T06:14:34;3.37;;;2.83;;
40533;SDS011;26233;51.894;10.192;2022-11-20T06:17:03;3.53;;;2.97;;
40533;SDS011;26233;51.894;10.192;2022-11-20T06:19:32;3.27;;;2.97;;
40533;SDS011;26233;51.894;10.192;2022-11-20T06:21:59;3.47;;;3.00;;
40533;SDS011;26233;51.894;10.192;2022-11-20T06:24:29;3.73;;;3.10;;
40533;SDS011;26233;51.894;10.192;2022-11-20T06:26:56;3.47;;;3.17;;
40533;SDS011;26233;51.894;10.192;2022-11-20T06:29:23;4.10;;;2.97;;
40533;SDS011;26233;51.894;10.192;2022-11-20T06:31:50;3.23;;;2.93;;
40533;SDS011;26233;51.894;10.192;2022-11-20T06:34:17;3.30;;;2.87;;
40533;SDS011;26233;51.894;10.192;2022-11-20T06:36:45;3.10;;;2.80;;
40533;SDS011;26233;51.894;10.192;2022-11-20T06:39:13;3.90;;;3.00;;
40533;SDS011;26233;51.894;10.192;2022-11-20T06:41:40;3.20;;;2.90;;
40533;SDS011;26233;51.894;10.192;2022-11-20T06:44:07;3.53;;;3.23;;
40533;SDS011;26233;51.894;10.192;2022-11-20T06:46:34;3.17;;;2.87;;
40533;SDS011;26233;51.894;10.192;2022-11-20T06:49:01;3.50;;;3.20;;
40533;SDS011;26233;51.894;10.192;2022-11-20T06:51:28;3.63;;;2.73;;
40533;SDS011;26233;51.894;10.192;2022-11-20T06:53:59;2.93;;;2.73;;
40533;SDS011;26233;51.894;10.192;2022-11-20T06:56:28;3.03;;;2.73;;
40533;SDS011;26233;51.894;10.192;2022-11-20T06:58:55;3.77;;;3.47;;
40533;SDS011;26233;51.894;10.192;2022-11-20T07:01:22;3.60;;;3.30;;
40533;SDS011;26233;51.894;10.192;2022-11-20T07:03:49;3.50;;;3.20;;
40533;SDS011;26233;51.894;10.192;2022-11-20T07:06:16;3.97;;;3.40;;
40533;SDS011;26233;51.894;10.192;2022-11-20T07:08:43;3.50;;;3.20;;
40533;SDS011;26233;51.894;10.192;2022-11-20T07:11:13;3.67;;;3.33;;
40533;SDS011;26233;51.894;10.192;2022-11-20T07:13:40;4.00;;;3.60;;
40533;SDS011;26233;51.894;10.192;2022-11-20T07:16:07;4.30;;;3.50;;
40533;SDS011;26233;51.894;10.192;2022-11-20T07:18:35;4.00;;;3.60;;
40533;SDS011;26233;51.894;10.192;2022-11-20T07:21:02;3.47;;;3.17;;
40533;SDS011;26233;51.894;10.192;2022-11-20T07:23:31;4.00;;;3.60;;
40533;SDS011;26233;51.894;10.192;2022-11-20T07:26:02;4.43;;;4.03;;
40533;SDS011;26233;51.894;10.192;2022-11-20T07:28:31;4.40;;;4.00;;
40533;SDS011;26233;51.894;10.192;2022-11-20T07:30:58;4.33;;;3.93;;
40533;SDS011;26233;51.894;10.192;2022-11-20T07:33:25;5.50;;;4.57;;
40533;SDS011;26233;51.894;10.192;2022-11-20T07:35:53;4.40;;;4.00;;
40533;SDS011;26233;51.894;10.192;2022-11-20T07:38:20;4.47;;;4.07;;
40533;SDS011;26233;51.894;10.192;2022-11-20T07:40:47;4.10;;;3.80;;
40533;SDS011;26233;51.894;10.192;2022-11-20T07:43:14;5.10;;;4.60;;
40533;SDS011;26233;51.894;10.192;2022-11-20T07:45:43;5.97;;;5.07;;
40533;SDS011;26233;51.894;10.192;2022-11-20T07:48:10;5.40;;;4.90;;
40533;SDS011;26233;51.894;10.192;2022-11-20T07:50:37;5.20;;;4.70;;
40533;SDS011;26233;51.894;10.192;2022-11-20T07:53:04;5.17;;;4.67;;
40533;SDS011;26233;51.894;10.192;2022-11-20T07:55:31;4.80;;;4.40;;
40533;SDS011;26233;51.894;10.192;2022-11-20T07:57:59;4.30;;;3.90;;
40533;SDS011;26233;51.894;10.192;2022-11-20T08:00:26;4.50;;;4.10;;
40533;SDS011;26233;51.894;10.192;2022-11-20T08:02:55;4.40;;;4.00;;
40533;SDS011;26233;51.894;10.192;2022-11-20T08:05:22;4.20;;;3.73;;
40533;SDS011;26233;51.894;10.192;2022-11-20T08:07:49;4.13;;;3.73;;
40533;SDS011;26233;51.894;10.192;2022-11-20T08:10:16;4.37;;;3.97;;
40533;SDS011;26233;51.894;10.192;2022-11-20T08:12:44;4.50;;;4.10;;
40533;SDS011;26233;51.894;10.192;2022-11-20T08:15:29;4.97;;;4.57;;
40533;SDS011;26233;51.894;10.192;2022-11-20T08:18:01;4.80;;;4.30;;
40533;SDS011;26233;51.894;10.192;2022-11-20T08:20:30;6.00;;;4.80;;
40533;SDS011;26233;51.894;10.192;2022-11-20T08:22:58;5.20;;;4.70;;
40533;SDS011;26233;51.894;10.192;2022-11-20T08:25:27;5.87;;;5.27;;
40533;SDS011;26233;51.894;10.192;2022-11-20T08:27:56;5.47;;;4.97;;
40533;SDS011;26233;51.894;10.192;2022-11-20T08:30:24;5.30;;;4.80;;
40533;SDS011;26233;51.894;10.192;2022-11-20T08:32:52;6.10;;;5.50;;
40533;SDS011;26233;51.894;10.192;2022-11-20T08:35:21;5.97;;;5.37;;
40533;SDS011;26233;51.894;10.192;2022-11-20T08:37:50;5.60;;;5.10;;
40533;SDS011;26233;51.894;10.192;2022-11-20T08:40:17;5.77;;;5.23;;
40533;SDS011;26233;51.894;10.192;2022-11-20T08:42:47;6.10;;;5.50;;
40533;SDS011;26233;51.894;10.192;2022-11-20T08:45:14;5.60;;;5.07;;
40533;SDS011;26233;51.894;10.192;2022-11-20T08:47:43;5.93;;;5.37;;
40533;SDS011;26233;51.894;10.192;2022-11-20T08:50:11;5.57;;;5.07;;
40533;SDS011;26233;51.894;10.192;2022-11-20T08:52:42;5.50;;;5.00;;
40533;SDS011;26233;51.894;10.192;2022-11-20T08:55:09;5.77;;;5.27;;
40533;SDS011;26233;51.894;10.192;2022-11-20T08:57:37;5.70;;;5.20;;
40533;SDS011;26233;51.894;10.192;2022-11-20T09:00:06;5.57;;;5.07;;
40533;SDS011;26233;51.894;10.192;2022-11-20T09:02:35;5.30;;;4.90;;
40533;SDS011;26233;51.894;10.192;2022-11-20T09:05:03;5.93;;;5.43;;
40533;SDS011;26233;51.894;10.192;2022-11-20T09:07:31;5.93;;;5.43;;
40533;SDS011;26233;51.894;10.192;2022-11-20T09:09:59;5.60;;;5.13;;
40533;SDS011;26233;51.894;10.192;2022-11-20T09:12:26;5.57;;;5.07;;
40533;SDS011;26233;51.894;10.192;2022-11-20T09:14:53;4.73;;;4.33;;
40533;SDS011;26233;51.894;10.192;2022-11-20T09:17:20;5.37;;;4.87;;
40533;SDS011;26233;51.894;10.192;2022-11-20T09:19:47;5.20;;;4.80;;
40533;SDS011;26233;51.894;10.192;2022-11-20T09:22:14;4.90;;;4.50;;
40533;SDS011;26233;51.894;10.192;2022-11-20T09:24:41;5.70;;;5.20;;
40533;SDS011;26233;51.894;10.192;2022-11-20T09:27:10;5.50;;;5.00;;
40533;SDS011;26233;51.894;10.192;2022-11-20T09:29:40;5.50;;;5.00;;
40533;SDS011;26233;51.894;10.192;2022-11-20T09:32:08;6.20;;;5.60;;
40533;SDS011;26233;51.894;10.192;2022-11-20T09:34:35;6.20;;;5.60;;
40533;SDS011;26233;51.894;10.192;2022-11-20T09:37:03;5.67;;;5.10;;
40533;SDS011;26233;51.894;10.192;2022-11-20T09:39:30;5.73;;;5.23;;
40533;SDS011;26233;51.894;10.192;2022-11-20T09:42:02;6.27;;;5.67;;
40533;SDS011;26233;51.894;10.192;2022-11-20T09:44:48;6.57;;;5.97;;
40533;SDS011;26233;51.894;10.192;2022-11-20T09:47:31;5.77;;;5.27;;
40533;SDS011;26233;51.894;10.192;2022-11-20T09:50:19;6.40;;;5.70;;
40533;SDS011;26233;51.894;10.192;2022-11-20T09:52:59;5.50;;;5.00;;
40533;SDS011;26233;51.894;10.192;2022-11-20T09:55:39;6.27;;;5.70;;
40533;SDS011;26233;51.894;10.192;2022-11-20T09:58:12;6.47;;;5.87;;
40533;SDS011;26233;51.894;10.192;2022-11-20T10:00:44;6.10;;;5.53;;
40533;SDS011;26233;51.894;10.192;2022-11-20T10:03:16;6.83;;;6.23;;
40533;SDS011;26233;51.894;10.192;2022-11-20T10:05:52;6.13;;;5.63;;
40533;SDS011;26233;51.894;10.192;2022-11-20T10:08:21;6.80;;;6.20;;
40533;SDS011;26233;51.894;10.192;2022-11-20T10:10:56;7.07;;;6.47;;
40533;SDS011;26233;51.894;10.192;2022-11-20T10:13:35;7.30;;;6.60;;
40533;SDS011;26233;51.894;10.192;2022-11-20T10:16:15;7.30;;;6.60;;
40533;SDS011;26233;51.894;10.192;2022-11-20T10:19:00;7.53;;;6.83;;
40533;SDS011;26233;51.894;10.192;2022-11-20T10:21:44;7.47;;;6.80;;
40533;SDS011;26233;51.894;10.192;2022-11-20T10:24:33;7.63;;;6.93;;
40533;SDS011;26233;51.894;10.192;2022-11-20T10:27:25;7.70;;;7.00;;
40533;SDS011;26233;51.894;10.192;2022-11-20T10:30:35;7.30;;;6.60;;
40533;SDS011;26233;51.894;10.192;2022-11-20T10:33:10;7.60;;;6.90;;
40533;SDS011;26233;51.894;10.192;2022-11-20T10:35:45;7.93;;;7.13;;
40533;SDS011;26233;51.894;10.192;2022-11-20T10:38:19;8.20;;;7.17;;
40533;SDS011;26233;51.894;10.192;2022-11-20T10:40:51;7.63;;;6.93;;
40533;SDS011;26233;51.894;10.192;2022-11-20T10:43:43;6.90;;;6.30;;
40533;SDS011;26233;51.894;10.192;2022-11-20T10:46:14;7.20;;;6.50;;
40533;SDS011;26233;51.894;10.192;2022-11-20T10:48:47;7.23;;;6.53;;
40533;SDS011;26233;51.894;10.192;2022-11-20T10:51:17;6.97;;;6.27;;
40533;SDS011;26233;51.894;10.192;2022-11-20T10:53:58;7.03;;;6.30;;
40533;SDS011;26233;51.894;10.192;2022-11-20T10:56:43;10.13;;;8.77;;
40533;SDS011;26233;51.894;10.192;2022-11-20T10:59:24;8.53;;;7.63;;
40533;SDS011;26233;51.894;10.192;2022-11-20T11:02:19;7.40;;;6.80;;
40533;SDS011;26233;51.894;10.192;2022-11-20T11:04:49;8.47;;;6.90;;
40533;SDS011;26233;51.894;10.192;2022-11-20T11:07:20;7.57;;;6.77;;
40533;SDS011;26233;51.894;10.192;2022-11-20T11:09:54;8.93;;;8.00;;
40533;SDS011;26233;51.894;10.192;2022-11-20T11:12:23;9.60;;;8.60;;
40533;SDS011;26233;51.894;10.192;2022-11-20T11:14:52;8.63;;;7.73;;
40533;SDS011;26233;51.894;10.192;2022-11-20T11:17:27;8.73;;;7.93;;
40533;SDS011;26233;51.894;10.192;2022-11-20T11:19:59;8.13;;;7.33;;
40533;SDS011;26233;51.894;10.192;2022-11-20T11:22:33;7.73;;;6.60;;
40533;SDS011;26233;51.894;10.192;2022-11-20T11:25:12;7.67;;;6.87;;
40533;SDS011;26233;51.894;10.192;2022-11-20T11:27:56;7.40;;;6.70;;
40533;SDS011;26233;51.894;10.192;2022-11-20T11:30:27;7.33;;;6.63;;
40533;SDS011;26233;51.894;10.192;2022-11-20T11:33:05;8.70;;;7.87;;
40533;SDS011;26233;51.894;10.192;2022-11-20T11:35:39;8.33;;;7.53;;
40533;SDS011;26233;51.894;10.192;2022-11-20T11:38:12;8.50;;;7.70;;
40533;SDS011;26233;51.894;10.192;2022-11-20T11:40:43;8.37;;;7.67;;
40533;SDS011;26233;51.894;10.192;2022-11-20T11:43:18;8.97;;;8.07;;
40533;SDS011;26233;51.894;10.192;2022-11-20T11:46:13;10.77;;;8.63;;
40533;SDS011;26233;51.894;10.192;2022-11-20T11:48:59;9.33;;;8.43;;
40533;SDS011;26233;51.894;10.192;2022-11-20T11:51:38;10.33;;;9.30;;
40533;SDS011;26233;51.894;10.192;2022-11-20T11:54:20;10.07;;;9.07;;
40533;SDS011;26233;51.894;10.192;2022-11-20T11:56:54;10.43;;;9.33;;
40533;SDS011;26233;51.894;10.192;2022-11-20T11:59:26;9.80;;;8.80;;
40533;SDS011;26233;51.894;10.192;2022-11-20T12:02:04;10.03;;;8.47;;
40533;SDS011;26233;51.894;10.192;2022-11-20T12:04:58;8.90;;;8.00;;
40533;SDS011;26233;51.894;10.192;2022-11-20T12:07:33;9.03;;;8.13;;
40533;SDS011;26233;51.894;10.192;2022-11-20T12:10:08;8.83;;;8.03;;
40533;SDS011;26233;51.894;10.192;2022-11-20T12:12:48;9.30;;;8.40;;
40533;SDS011;26233;51.894;10.192;2022-11-20T12:15:29;8.40;;;7.60;;
40533;SDS011;26233;51.894;10.192;2022-11-20T12:17:59;8.70;;;7.90;;
40533;SDS011;26233;51.894;10.192;2022-11-20T12:20:29;8.03;;;7.23;;
40533;SDS011;26233;51.894;10.192;2022-11-20T12:23:02;6.97;;;6.27;;
40533;SDS011;26233;51.894;10.192;2022-11-20T12:25:36;7.17;;;6.47;;
40533;SDS011;26233;51.894;10.192;2022-11-20T12:28:16;8.83;;;7.97;;
40533;SDS011;26233;51.894;10.192;2022-11-20T12:31:02;8.67;;;7.87;;
40533;SDS011;26233;51.894;10.192;2022-11-20T12:34:12;7.90;;;7.10;;
40533;SDS011;26233;51.894;10.192;2022-11-20T12:37:10;7.47;;;6.77;;
40533;SDS011;26233;51.894;10.192;2022-11-20T12:39:54;7.53;;;6.83;;
40533;SDS011;26233;51.894;10.192;2022-11-20T12:42:33;7.87;;;7.17;;
40533;SDS011;26233;51.894;10.192;2022-11-20T12:45:54;9.00;;;7.53;;
40533;SDS011;26233;51.894;10.192;2022-11-20T12:48:38;8.03;;;7.23;;
40533;SDS011;26233;51.894;10.192;2022-11-20T12:51:27;7.57;;;6.87;;
40533;SDS011;26233;51.894;10.192;2022-11-20T12:54:28;7.00;;;6.30;;
40533;SDS011;26233;51.894;10.192;2022-11-20T12:57:06;7.03;;;6.37;;
40533;SDS011;26233;51.894;10.192;2022-11-20T12:59:49;6.20;;;5.60;;
40533;SDS011;26233;51.894;10.192;2022-11-20T13:02:32;6.67;;;5.90;;
40533;SDS011;26233;51.894;10.192;2022-11-20T13:05:21;6.97;;;6.20;;
40533;SDS011;26233;51.894;10.192;2022-11-20T13:07:59;7.20;;;6.50;;
40533;SDS011;26233;51.894;10.192;2022-11-20T13:10:32;7.93;;;7.13;;
40533;SDS011;26233;51.894;10.192;2022-11-20T13:13:04;7.17;;;6.47;;
40533;SDS011;26233;51.894;10.192;2022-11-20T13:15:46;6.60;;;6.00;;
40533;SDS011;26233;51.894;10.192;2022-11-20T13:18:21;7.03;;;6.33;;
40533;SDS011;26233;51.894;10.192;2022-11-20T13:20:48;7.87;;;7.17;;
40533;SDS011;26233;51.894;10.192;2022-11-20T13:23:23;7.50;;;6.80;;
40533;SDS011;26233;51.894;10.192;2022-11-20T13:26:03;6.77;;;6.17;;
40533;SDS011;26233;51.894;10.192;2022-11-20T13:28:32;7.53;;;6.27;;
40533;SDS011;26233;51.894;10.192;2022-11-20T13:30:59;6.93;;;6.23;;
40533;SDS011;26233;51.894;10.192;2022-11-20T13:33:30;6.30;;;5.70;;
40533;SDS011;26233;51.894;10.192;2022-11-20T13:35:59;7.37;;;6.67;;
40533;SDS011;26233;51.894;10.192;2022-11-20T13:38:40;8.23;;;6.90;;
40533;SDS011;26233;51.894;10.192;2022-11-20T13:41:22;6.90;;;6.17;;
40533;SDS011;26233;51.894;10.192;2022-11-20T13:43:59;6.70;;;6.00;;
40533;SDS011;26233;51.894;10.192;2022-11-20T13:46:39;8.13;;;7.33;;
40533;SDS011;26233;51.894;10.192;2022-11-20T13:49:09;6.83;;;6.17;;
40533;SDS011;26233;51.894;10.192;2022-11-20T13:51:43;6.70;;;6.07;;
40533;SDS011;26233;51.894;10.192;2022-11-20T13:57:30;7.23;;;6.53;;
40533;SDS011;26233;51.894;10.192;2022-11-20T14:00:20;5.87;;;5.37;;
40533;SDS011;26233;51.894;10.192;2022-11-20T14:02:51;6.60;;;6.00;;
40533;SDS011;26233;51.894;10.192;2022-11-20T14:05:28;6.87;;;6.23;;
40533;SDS011;26233;51.894;10.192;2022-11-20T14:08:11;6.33;;;5.73;;
40533;SDS011;26233;51.894;10.192;2022-11-20T14:10:47;6.63;;;6.03;;
40533;SDS011;26233;51.894;10.192;2022-11-20T14:13:16;6.40;;;5.80;;
40533;SDS011;26233;51.894;10.192;2022-11-20T14:15:45;6.17;;;5.57;;
40533;SDS011;26233;51.894;10.192;2022-11-20T14:18:13;6.70;;;5.97;;
40533;SDS011;26233;51.894;10.192;2022-11-20T14:20:46;7.23;;;6.53;;
40533;SDS011;26233;51.894;10.192;2022-11-20T14:23:22;6.87;;;6.27;;
40533;SDS011;26233;51.894;10.192;2022-11-20T14:25:51;7.33;;;6.53;;
40533;SDS011;26233;51.894;10.192;2022-11-20T14:28:21;6.53;;;5.90;;
40533;SDS011;26233;51.894;10.192;2022-11-20T14:30:55;6.80;;;6.13;;
40533;SDS011;26233;51.894;10.192;2022-11-20T14:33:23;6.30;;;5.70;;
40533;SDS011;26233;51.894;10.192;2022-11-20T14:35:53;6.10;;;5.50;;
40533;SDS011;26233;51.894;10.192;2022-11-20T14:38:23;6.07;;;5.47;;
40533;SDS011;26233;51.894;10.192;2022-11-20T14:40:53;5.60;;;5.10;;
40533;SDS011;26233;51.894;10.192;2022-11-20T14:43:25;5.43;;;4.93;;
40533;SDS011;26233;51.894;10.192;2022-11-20T14:45:58;5.40;;;4.90;;
40533;SDS011;26233;51.894;10.192;2022-11-20T14:48:29;5.43;;;4.93;;
40533;SDS011;26233;51.894;10.192;2022-11-20T14:51:01;5.97;;;5.40;;
40533;SDS011;26233;51.894;10.192;2022-11-20T14:53:28;5.50;;;5.00;;
40533;SDS011;26233;51.894;10.192;2022-11-20T14:55:56;5.23;;;4.73;;
40533;SDS011;26233;51.894;10.192;2022-11-20T14:58:27;5.63;;;5.13;;
40533;SDS011;26233;51.894;10.192;2022-11-20T15:00:58;5.30;;;4.80;;
40533;SDS011;26233;51.894;10.192;2022-11-20T15:03:38;6.20;;;5.60;;